Hlavní strana
METAR-TAF:

METAR-TAF

Letiště :

Târgu Mureş, Rumunsko

zeměpisná šířka: 46-32N, zeměpisná délka: 024-32E, výška: 308 m

Aktuální stav počasí

Zpráva byla vytvořena před 20 minutami, v 08:00 UTC
Východoseverovýchodní vítr 7 kt
Teplota 11°C
Vlhkost vzduchu 76%
Tlak 1017 hPa
Viditelnost 10 km a více
Skoro jasno ve výšce 1200 ft

METAR: LRTM 180800Z 07007KT 9999 FEW012 11/07 Q1017

Čas: 10:20 (08:20 UTC)

Předpověď počasí

Zpráva byla vytvořena před 3 hodinami a 20 minutami, v 05:00 UTC
Předpověď platná od 18 v 06 UTC do 18 v 15 UTC
Východní vítr 7 kt
Viditelnost 10 km a více
Žádná oblačnost pod 1500 m, nevyskytují se cumulonimby.
Dočasný
od 18 v 06 UTC do 18 v 07 UTC
Viditelnost: 3000 m
kouřmo
Pravděpodobnost 40% :
Dočasný
od 18 v 13 UTC do 18 v 15 UTC
Viditelnost: 5000 m
slabý déšť

TAF: LRTM 180500Z 1806/1815 09007KT CAVOK TEMPO 1806/1807 3000 BR PROB40 TEMPO 1813/1815 5000 -RA

Stav a předpovědi počasí z více než 4 000 letišť (zprávy METAR a TAF).

Červené a žluté tečky na mapě představují dostupné meteorologické stanice.

Když kurzor umístíte na tečku, zobrazí se název stanice.

Pak kliknutím zobrazíte stav a předpověď počasí.

Chcete-li změnit mapu, kliknutím na zelené tlačítko se znaménkem +mapu přiblížíte, kliknutím na zelené tlačítko se znaménkem – mapu oddálíte a kliknutím na zelené šipky přejdete na sousední mapy.


METAR-TAF: